Time;durP1;ratioP1;P1;durP2;ratioP2;P2;SDS_P1;SDS_P2;PMS_P1;PMS_P2;Temp;Humidity;BMP_temperature;BMP_pressure;BME280_temperature;BME280_humidity;BME280_pressure;Samples;Min_cycle;Max_cycle;Signal;HPM_P1;HPM_P2
2023/11/10 08:48:37;;;;;;;0.63;0.63;;;;;;;9.42;100.00;97480.63;5158578;27;20601;-82
2023/11/10 08:51:04;;;;;;;0.97;0.70;;;;;;;10.35;100.00;97524.13;5134824;27;39880;-82
2023/11/10 08:53:32;;;;;;;1.00;0.80;;;;;;;11.10;95.10;97552.25;5151510;27;40842;-82
2023/11/10 08:55:59;;;;;;;0.50;0.47;;;;;;;11.58;91.70;97555.13;5134313;27;42966;-84
2023/11/10 08:58:27;;;;;;;0.73;0.40;;;;;;;11.86;87.19;97546.47;5134521;27;41476;-81
2023/11/10 09:00:55;;;;;;;0.60;0.47;;;;;;;12.10;85.01;97564.66;5151797;27;40933;-82
2023/11/10 09:03:23;;;;;;;0.70;0.70;;;;;;;12.28;82.66;97566.63;5151424;27;40662;-82
2023/11/10 09:05:52;;;;;;;0.50;0.50;;;;;;;12.32;79.46;97568.88;5134289;27;42897;-82
2023/11/10 09:08:21;;;;;;;1.23;0.67;;;;;;;12.38;79.19;97568.31;5134526;27;41649;-84
2023/11/10 09:10:48;;;;;;;0.60;0.53;;;;;;;12.43;77.55;97575.88;5134491;27;40013;-82
2023/11/10 09:13:16;;;;;;;1.17;0.63;;;;;;;12.49;78.75;97570.00;5152549;27;40797;-80
2023/11/10 09:15:47;;;;;;;0.50;0.50;;;;;;;12.37;77.77;97561.31;5135077;27;41974;-83
2023/11/10 09:18:15;;;;;;;1.80;0.70;;;;;;;12.36;77.64;97567.63;5135716;27;41381;-86
2023/11/10 09:20:44;;;;;;;3.43;0.83;;;;;;;12.34;77.03;97574.91;5135258;27;41323;-82
2023/11/10 09:23:13;;;;;;;0.70;0.50;;;;;;;12.47;76.20;97582.59;5152472;27;42792;-81
2023/11/10 09:25:40;;;;;;;1.10;0.57;;;;;;;12.75;75.59;97570.28;5134998;27;42765;-84
2023/11/10 09:28:08;;;;;;;0.40;0.40;;;;;;;13.17;72.31;97592.94;5135003;27;42248;-82
2023/11/10 09:30:36;;;;;;;2.53;0.57;;;;;;;13.36;71.17;97577.88;5135519;27;38556;-83
2023/11/10 09:33:04;;;;;;;0.53;0.53;;;;;;;13.78;71.31;97589.78;5169575;27;40826;-78
2023/11/10 09:35:37;;;;;;;1.03;0.60;;;;;;;13.90;67.20;97585.94;5134736;27;41907;-84
2023/11/10 09:38:05;;;;;;;1.43;0.40;;;;;;;14.14;65.41;97597.88;5151534;27;42929;-79
2023/11/10 09:40:34;;;;;;;3.53;0.50;;;;;;;14.11;65.17;97604.31;5149633;27;38890;-80
2023/11/10 09:43:05;;;;;;;1.40;0.60;;;;;;;14.03;65.22;97589.09;5169459;27;41715;-82
2023/11/10 09:45:33;;;;;;;1.07;0.60;;;;;;;14.29;64.60;97601.72;5147579;27;43807;-80
2023/11/10 09:48:04;;;;;;;1.20;0.40;;;;;;;14.15;61.99;97615.53;5133181;27;41436;-80
2023/11/10 09:50:32;;;;;;;1.50;0.40;;;;;;;13.88;61.53;97609.22;5169609;27;40215;-79
2023/11/10 09:53:00;;;;;;;0.40;0.40;;;;;;;13.76;62.95;97582.94;5133665;27;41739;-83
2023/11/10 09:55:28;;;;;;;0.50;0.50;;;;;;;13.92;62.88;97594.63;5144775;27;42326;-82
2023/11/10 09:57:57;;;;;;;0.40;0.40;;;;;;;13.97;61.36;97616.31;5126335;27;40843;-82
2023/11/10 10:00:26;;;;;;;1.07;0.60;;;;;;;13.97;61.92;97602.19;5138596;27;40326;-83
2023/11/10 10:02:53;;;;;;;0.30;0.30;;;;;;;13.76;59.79;97594.41;5119482;27;40356;-81
2023/11/10 10:05:21;;;;;;;1.60;0.67;;;;;;;13.83;61.42;97598.19;5119679;27;41801;-81
2023/11/10 10:07:49;;;;;;;0.87;0.50;;;;;;;13.97;61.72;97587.03;5155138;27;42212;-82
2023/11/10 10:10:34;;;;;;;1.00;0.70;;;;;;;14.25;60.30;97597.66;5119733;27;40969;-86
2023/11/10 10:23:26;;;;;;;1.13;0.40;;;;;;;24.12;39.65;97684.66;5113799;27;39415;-88
2023/11/10 10:25:55;;;;;;;0.60;0.40;;;;;;;25.03;36.51;97691.72;5121235;27;41202;-89
2023/11/10 10:28:27;;;;;;;2.77;0.60;;;;;;;26.03;36.60;97659.34;5105889;27;41843;-90
2023/11/10 10:34:39;;;;;;;0.87;0.60;;;;;;;27.00;32.54;97695.72;5119539;27;39011;-92
2023/11/10 10:43:07;;;;;;;0.97;0.50;;;;;;;22.84;36.22;97637.13;5107504;28;42398;-84
2023/11/10 10:45:37;;;;;;;1.30;0.47;;;;;;;21.47;38.19;97617.22;5095205;28;39052;-83
2023/11/10 10:48:06;;;;;;;1.43;0.50;;;;;;;20.42;40.23;97606.16;5082851;28;40954;-84
2023/11/10 10:50:42;;;;;;;0.60;0.53;;;;;;;19.60;41.13;97600.88;5054906;28;42865;-86
2023/11/10 10:53:15;;;;;;;0.70;0.40;;;;;;;19.48;42.21;97606.84;5068360;28;42830;-85
2023/11/10 10:55:44;;;;;;;2.00;0.50;;;;;;;20.69;41.16;97605.44;5075018;28;41434;-85
2023/11/10 10:58:14;;;;;;;3.03;0.83;;;;;;;21.06;39.78;97619.69;5074172;28;42235;-83
2023/11/10 11:01:11;;;;;;;1.27;0.80;;;;;;;20.52;41.58;97547.56;5090143;28;41976;-91
2023/11/10 11:03:55;;;;;;;0.40;0.40;;;;;;;20.86;42.46;97592.59;5043249;28;41276;-91
2023/11/10 11:06:42;;;;;;;1.83;1.30;;;;;;;21.81;40.51;97592.19;5042080;28;38693;-90
2023/11/10 11:09:33;;;;;;;1.20;0.50;;;;;;;21.89;39.15;97610.88;5050596;28;41595;-87
2023/11/10 11:16:16;;;;;;;1.10;0.50;;;;;;;23.97;35.98;97626.25;5037664;28;42330;-87
2023/11/10 11:19:05;;;;;;;0.63;0.57;;;;;;;22.56;35.68;97627.25;5053671;28;39145;-84
2023/11/10 11:21:33;;;;;;;2.73;0.70;;;;;;;21.45;37.72;97622.78;5113321;28;40733;-82
2023/11/10 11:25:08;;;;;;;0.70;0.50;;;;;;;20.27;39.51;97608.88;5112795;28;43857;-86
2023/11/10 11:28:56;;;;;;;0.93;0.50;;;;;;;19.13;41.22;97546.59;5034926;28;41349;-87
2023/11/10 11:34:33;;;;;;;0.97;0.60;;;;;;;23.17;37.58;97577.78;5035423;28;43401;-86
2023/11/10 11:37:24;;;;;;;1.57;0.70;;;;;;;26.94;32.64;97590.69;5035986;28;42383;-84
2023/11/10 11:40:35;;;;;;;0.70;0.70;;;;;;;30.26;27.46;97639.94;5035136;28;41384;-86
2023/11/10 11:55:50;;;;;;;0.43;0.20;;;;;;;36.58;20.00;97636.06;5151432;27;41469;-89
2023/11/10 11:58:40;;;;;;;0.50;0.32;;;;;;;34.80;21.10;97650.28;5135512;27;41500;-89
2023/11/10 12:01:37;;;;;;;0.50;0.50;;;;;;;31.67;22.27;97629.88;5118633;27;44099;-86
2023/11/10 12:07:19;;;;;;;0.70;0.50;;;;;;;26.10;27.56;97609.38;5137839;27;39206;-86
2023/11/10 12:10:03;;;;;;;1.50;0.77;;;;;;;24.43;29.49;97590.13;5114850;27;43216;-85
2023/11/10 12:12:35;;;;;;;3.20;0.60;;;;;;;22.82;31.23;97571.72;5118606;27;41679;-85
2023/11/10 12:15:04;;;;;;;0.83;0.47;;;;;;;21.65;32.91;97560.13;5109061;27;41415;-82
2023/11/10 12:20:30;;;;;;;0.83;0.60;;;;;;;24.33;30.80;97512.13;5129912;27;41400;-84
2023/11/10 12:23:00;;;;;;;0.57;0.57;;;;;;;26.98;28.36;97578.28;5118528;27;42858;-85
2023/11/10 12:25:36;;;;;;;0.90;0.70;;;;;;;28.68;25.79;97583.66;5125896;27;42743;-83
2023/11/10 12:28:11;;;;;;;0.83;0.40;;;;;;;29.39;25.34;97602.22;5139305;27;39329;-85
2023/11/10 12:30:40;;;;;;;1.07;0.60;;;;;;;28.74;26.30;97560.88;5130401;27;40612;-82
2023/11/10 12:37:20;;;;;;;1.50;0.60;;;;;;;31.25;22.93;97561.34;5149737;27;42202;-85
2023/11/10 12:42:35;;;;;;;0.63;0.63;;;;;;;31.30;23.09;97563.28;5145968;27;41240;-85
2023/11/10 12:45:11;;;;;;;0.90;0.70;;;;;;;29.61;24.45;97584.03;5138773;27;44087;-84
2023/11/10 12:47:42;;;;;;;1.43;0.80;;;;;;;27.63;26.10;97546.50;5135244;27;41973;-85
2023/11/10 12:50:22;;;;;;;2.23;1.00;;;;;;;26.96;26.30;97599.41;5121175;27;41748;-82
2023/11/10 12:53:01;;;;;;;1.67;0.87;;;;;;;25.66;27.60;97596.06;5151165;27;41533;-86
2023/11/10 12:55:32;;;;;;;3.00;0.80;;;;;;;24.58;28.77;97592.56;5131078;27;42776;-86
2023/11/10 12:58:00;;;;;;;2.40;0.90;;;;;;;23.49;30.88;97584.25;5118056;27;41580;-86
2023/11/10 13:00:31;;;;;;;0.83;0.60;;;;;;;22.72;31.85;97584.75;5123646;27;39252;-86
2023/11/10 13:02:59;;;;;;;4.20;1.00;;;;;;;21.62;32.66;97556.00;5138316;27;41779;-82
2023/11/10 13:05:34;;;;;;;1.00;0.60;;;;;;;20.87;33.97;97563.84;5134947;27;41881;-83
2023/11/10 13:08:03;;;;;;;1.93;0.80;;;;;;;20.22;35.20;97516.34;5117804;27;43354;-84
2023/11/10 13:10:37;;;;;;;1.80;0.50;;;;;;;20.05;35.40;97545.28;5103456;27;38958;-83
2023/11/10 13:13:21;;;;;;;0.80;0.80;;;;;;;19.01;36.37;97492.53;5138288;27;45173;-82
2023/11/10 13:16:37;;;;;;;1.50;0.60;;;;;;;18.95;37.35;97545.06;5117496;27;42245;-83
2023/11/10 13:19:22;;;;;;;2.27;0.87;;;;;;;18.28;37.85;97491.25;5110013;27;41271;-87
2023/11/10 13:21:53;;;;;;;3.23;1.10;;;;;;;18.25;38.31;97513.03;5134712;27;40732;-86
2023/11/10 13:24:20;;;;;;;4.33;1.17;;;;;;;18.26;38.92;97520.06;5150987;27;41975;-83
2023/11/10 13:26:49;;;;;;;2.80;0.80;;;;;;;17.96;38.80;97499.47;5128063;27;43284;-84
2023/11/10 13:29:17;;;;;;;2.67;0.93;;;;;;;17.32;39.24;97471.91;5117347;27;42531;-86
2023/11/10 13:31:55;;;;;;;1.33;0.80;;;;;;;17.11;40.17;97517.09;5125317;27;41293;-83
2023/11/10 13:35:00;;;;;;;3.93;1.10;;;;;;;16.44;41.13;97490.50;5132306;27;42773;-82
2023/11/10 13:37:45;;;;;;;1.37;0.70;;;;;;;16.68;41.49;97478.22;5128858;27;41844;-82
2023/11/10 13:40:25;;;;;;;2.50;0.90;;;;;;;16.91;40.85;97502.44;5120361;27;41300;-84
2023/11/10 13:43:02;;;;;;;3.07;1.00;;;;;;;16.72;41.28;97484.88;5134291;27;40349;-87
2023/11/10 13:45:32;;;;;;;1.40;0.87;;;;;;;17.74;40.20;97486.84;5140867;27;40748;-86
2023/11/10 13:48:01;;;;;;;2.00;0.90;;;;;;;19.11;36.97;97519.09;5142580;27;42623;-86
2023/11/10 13:53:34;;;;;;;1.77;0.90;;;;;;;20.48;34.50;97508.59;5131174;27;40203;-85
2023/11/10 13:56:12;;;;;;;1.40;0.90;;;;;;;21.30;33.07;97548.50;5140585;27;43925;-86
2023/11/10 13:58:56;;;;;;;1.10;0.70;;;;;;;21.58;32.50;97549.34;5105319;27;43166;-85
2023/11/10 14:01:30;;;;;;;0.93;0.60;;;;;;;21.21;32.78;97502.03;5120033;27;41408;-82
2023/11/10 14:04:09;;;;;;;2.90;0.70;;;;;;;21.38;32.48;97516.06;5136559;27;38694;-84
2023/11/10 14:09:27;;;;;;;0.63;0.60;;;;;;;21.63;32.36;97546.88;5173215;27;41910;-83
2023/11/10 14:11:55;;;;;;;1.43;0.63;;;;;;;21.23;32.73;97561.91;5141641;27;43565;-83
2023/11/10 14:14:24;;;;;;;2.30;0.50;;;;;;;21.35;32.62;97559.53;5158955;27;39866;-82
2023/11/10 14:17:14;;;;;;;1.83;0.50;;;;;;;21.38;31.66;97565.34;5141800;27;40980;-82
2023/11/10 14:19:43;;;;;;;4.43;0.77;;;;;;;21.34;32.24;97563.25;5157803;27;42775;-82
2023/11/10 14:22:11;;;;;;;1.67;0.67;;;;;;;21.47;32.56;97564.19;5141354;27;43633;-86
2023/11/10 14:24:41;;;;;;;1.00;0.60;;;;;;;20.90;32.74;97548.13;5140146;27;39109;-84
2023/11/10 14:27:13;;;;;;;2.23;0.97;;;;;;;20.04;33.89;97554.34;5141250;27;41171;-81
2023/11/10 14:30:03;;;;;;;0.93;0.60;;;;;;;18.82;35.15;97526.06;5135116;27;43738;-80
2023/11/10 14:32:33;;;;;;;2.90;0.80;;;;;;;17.92;35.94;97516.91;5120541;27;41321;-83
2023/11/10 14:35:02;;;;;;;1.40;0.77;;;;;;;17.24;37.56;97525.44;5138769;27;40381;-83
2023/11/10 14:37:30;;;;;;;1.93;0.50;;;;;;;16.72;38.79;97522.31;5141470;27;40560;-83
2023/11/10 14:40:13;;;;;;;0.87;0.67;;;;;;;16.30;39.32;97488.53;5136586;27;43241;-87
2023/11/10 14:42:43;;;;;;;1.53;0.70;;;;;;;16.29;39.91;97520.75;5136211;27;41354;-83
2023/11/10 14:45:21;;;;;;;3.80;0.90;;;;;;;15.55;40.42;97444.13;5135549;27;39010;-86
2023/11/10 14:47:51;;;;;;;0.77;0.60;;;;;;;15.66;40.50;97499.84;5136796;27;41006;-86
2023/11/10 14:50:38;;;;;;;1.23;0.63;;;;;;;15.25;42.05;97475.63;5135827;27;43400;-85
2023/11/10 14:53:16;;;;;;;1.83;0.70;;;;;;;14.83;42.21;97440.06;5136012;27;41472;-85
2023/11/10 14:55:47;;;;;;;1.60;0.67;;;;;;;14.87;42.68;97484.88;5138655;27;39377;-85
2023/11/10 14:58:15;;;;;;;1.83;0.80;;;;;;;14.60;42.86;97466.34;5153848;27;41945;-82
2023/11/10 15:00:44;;;;;;;1.03;0.70;;;;;;;14.62;43.10;97486.53;5121399;27;42173;-82
2023/11/10 15:03:12;;;;;;;2.00;0.87;;;;;;;14.57;43.51;97482.66;5118603;27;41347;-84
2023/11/10 15:05:39;;;;;;;1.23;0.60;;;;;;;14.52;43.85;97501.75;5133433;27;39200;-81
2023/11/10 15:08:08;;;;;;;2.30;0.93;;;;;;;14.40;45.40;97491.50;5139156;27;43499;-84
2023/11/10 15:10:36;;;;;;;1.90;1.10;;;;;;;14.28;44.77;97496.19;5142558;27;42712;-85
2023/11/10 15:13:07;;;;;;;2.70;1.00;;;;;;;14.00;45.07;97482.09;5136585;27;42594;-82
2023/11/10 15:15:35;;;;;;;2.20;0.73;;;;;;;13.88;46.31;97485.97;5148287;27;38782;-83
2023/11/10 15:18:08;;;;;;;3.80;0.73;;;;;;;13.57;47.07;97457.03;5140146;27;41014;-87
2023/11/10 15:20:36;;;;;;;1.03;0.83;;;;;;;13.40;47.76;97456.97;5129153;27;41659;-84
2023/11/10 15:23:04;;;;;;;1.13;0.70;;;;;;;13.18;48.53;97461.69;5119340;27;44129;-83
2023/11/10 15:25:32;;;;;;;1.27;0.80;;;;;;;12.93;49.37;97457.00;5128156;27;38860;-85
2023/11/10 15:28:00;;;;;;;1.80;0.70;;;;;;;12.31;49.72;97392.00;5175988;27;43252;-86
2023/11/10 15:30:28;;;;;;;2.73;0.90;;;;;;;12.42;50.56;97431.66;5150381;27;41708;-85
2023/11/10 15:33:00;;;;;;;3.17;0.90;;;;;;;12.35;50.83;97446.50;5119554;27;41064;-84
2023/11/10 15:35:29;;;;;;;1.93;0.70;;;;;;;12.20;50.86;97434.63;5157429;27;40086;-81
2023/11/10 15:37:57;;;;;;;2.43;0.67;;;;;;;12.20;52.13;97431.97;5122697;27;40911;-81
2023/11/10 15:40:24;;;;;;;1.70;1.03;;;;;;;12.04;52.94;97413.13;5136109;27;43034;-81
2023/11/10 15:42:52;;;;;;;1.77;1.00;;;;;;;11.97;52.82;97419.97;5117490;27;41336;-83
2023/11/10 15:45:21;;;;;;;2.17;1.10;;;;;;;11.90;53.61;97413.53;5119985;27;38866;-83
2023/11/10 15:47:53;;;;;;;1.60;0.80;;;;;;;11.52;53.49;97367.41;5158854;27;41845;-83
2023/11/10 15:50:28;;;;;;;1.77;1.10;;;;;;;11.64;53.80;97424.66;5163417;27;42993;-88
2023/11/10 15:52:58;;;;;;;1.23;0.80;;;;;;;11.47;55.23;97414.72;5125531;27;41875;-83
2023/11/10 15:55:26;;;;;;;0.70;0.63;;;;;;;11.40;55.30;97426.84;5121404;27;39843;-83
2023/11/10 15:57:57;;;;;;;2.43;0.83;;;;;;;11.44;55.61;97439.69;5132935;27;40532;-83
2023/11/10 16:00:45;;;;;;;1.53;0.70;;;;;;;11.40;54.93;97453.34;5125011;27;41875;-86
2023/11/10 16:03:28;;;;;;;0.83;0.63;;;;;;;11.39;55.58;97449.00;5118524;27;43127;-90
2023/11/10 16:08:41;;;;;;;0.70;0.70;;;;;;;11.35;57.23;97450.28;5137863;27;39242;-86
2023/11/10 16:11:29;;;;;;;1.20;0.60;;;;;;;11.14;56.84;97426.47;5138438;27;41843;-86
2023/11/10 16:19:40;;;;;;;1.60;0.70;;;;;;;10.97;57.34;97441.19;5118583;27;41598;-85
2023/11/10 16:25:17;;;;;;;2.30;1.10;;;;;;;11.09;57.68;97461.34;5153027;27;42977;-86
2023/11/10 16:28:06;;;;;;;0.80;0.80;;;;;;;10.79;58.61;97408.34;5156708;27;40002;-86
2023/11/10 16:30:42;;;;;;;1.83;1.03;;;;;;;10.85;58.30;97415.78;5139789;27;42219;-86
2023/11/10 16:33:10;;;;;;;0.90;0.60;;;;;;;11.11;58.25;97463.84;5135364;27;42920;-91
2023/11/10 16:38:39;;;;;;;1.77;0.87;;;;;;;10.91;58.60;97439.06;5165501;27;40607;-89
2023/11/10 16:41:10;;;;;;;1.10;0.90;;;;;;;10.83;59.17;97436.25;5138313;27;40652;-89
2023/11/10 16:43:57;;;;;;;2.60;0.83;;;;;;;10.97;58.86;97451.81;5119078;27;42885;-88
2023/11/10 16:46:44;;;;;;;1.80;1.13;;;;;;;10.94;58.59;97454.72;5118070;27;41133;-86
2023/11/10 16:49:11;;;;;;;1.10;0.80;;;;;;;10.76;58.63;97429.78;5134707;27;40139;-83
2023/11/10 16:51:39;;;;;;;2.83;1.13;;;;;;;10.72;59.18;97446.94;5117684;27;41622;-82
2023/11/10 16:54:08;;;;;;;0.77;0.77;;;;;;;10.76;59.22;97465.06;5134094;27;42717;-85
2023/11/10 16:56:37;;;;;;;1.97;1.20;;;;;;;10.65;60.09;97443.94;5117923;27;42410;-87
2023/11/10 16:59:05;;;;;;;2.60;0.97;;;;;;;10.73;59.83;97461.84;5134322;27;41186;-83
2023/11/10 17:01:33;;;;;;;2.03;1.43;;;;;;;10.57;60.42;97427.06;5117772;27;41897;-88
2023/11/10 17:04:02;;;;;;;1.20;1.03;;;;;;;10.66;60.78;97437.69;5129304;27;44025;-84
2023/11/10 17:06:32;;;;;;;2.17;0.90;;;;;;;10.73;60.61;97448.63;5143981;27;42160;-86
2023/11/10 17:09:00;;;;;;;2.43;1.10;;;;;;;10.62;60.64;97440.75;5149213;27;38633;-84
2023/11/10 17:11:29;;;;;;;2.23;0.90;;;;;;;10.65;61.42;97437.81;5164355;27;42508;-87
2023/11/10 17:13:58;;;;;;;2.33;1.00;;;;;;;10.61;61.35;97434.63;5122538;27;42220;-87
2023/11/10 17:16:27;;;;;;;1.27;0.97;;;;;;;10.47;61.15;97415.59;5139919;27;41342;-88
2023/11/10 17:18:55;;;;;;;1.83;1.40;;;;;;;10.62;61.86;97456.63;5122398;27;39733;-85
2023/11/10 17:21:23;;;;;;;1.70;1.00;;;;;;;10.44;61.99;97443.97;5122543;27;40736;-87
2023/11/10 17:23:51;;;;;;;2.27;1.30;;;;;;;10.30;62.39;97438.16;5118982;27;41831;-86
2023/11/10 17:26:22;;;;;;;1.73;1.20;;;;;;;10.31;63.58;97445.13;5121292;27;41301;-88
2023/11/10 17:28:50;;;;;;;1.60;1.00;;;;;;;10.01;63.78;97406.19;5120713;27;39727;-87
2023/11/10 17:31:19;;;;;;;1.43;0.90;;;;;;;10.32;63.59;97455.59;5138607;27;40826;-85
2023/11/10 17:33:47;;;;;;;1.67;1.10;;;;;;;10.31;64.48;97456.56;5156811;27;42824;-86
2023/11/10 17:36:15;;;;;;;2.37;1.13;;;;;;;10.44;64.66;97464.31;5121267;27;40745;-85
2023/11/10 17:38:42;;;;;;;1.47;1.00;;;;;;;10.37;64.09;97449.94;5156154;27;40011;-85
2023/11/10 17:41:11;;;;;;;1.40;0.83;;;;;;;10.24;64.94;97450.13;5138166;27;41797;-85
2023/11/10 17:43:38;;;;;;;0.80;0.70;;;;;;;10.07;65.26;97437.41;5121092;27;43255;-84
2023/11/10 17:46:06;;;;;;;1.80;1.27;;;;;;;10.17;65.58;97454.19;5121063;27;42791;-85
2023/11/10 17:48:36;;;;;;;2.23;0.90;;;;;;;10.02;65.68;97442.22;5120768;27;40279;-85
2023/11/10 17:51:04;;;;;;;1.57;0.63;;;;;;;10.06;67.08;97448.94;5121008;27;40792;-86
2023/11/10 17:53:32;;;;;;;2.50;1.13;;;;;;;9.70;66.25;97399.94;5120936;27;41560;-85
2023/11/10 17:55:59;;;;;;;1.13;0.93;;;;;;;10.03;66.07;97459.78;5121016;27;42922;-86
2023/11/10 17:58:27;;;;;;;1.40;0.97;;;;;;;9.85;66.29;97435.72;5156127;27;39875;-83
2023/11/10 18:00:56;;;;;;;2.63;1.00;;;;;;;9.94;66.83;97455.25;5120605;27;43269;-82
2023/11/10 18:03:23;;;;;;;2.83;1.00;;;;;;;9.85;67.05;97454.22;5137712;27;42058;-85
2023/11/10 18:05:52;;;;;;;1.10;0.73;;;;;;;9.79;67.56;97446.78;5120252;27;42793;-85
2023/11/10 18:08:20;;;;;;;1.00;0.80;;;;;;;9.71;67.94;97436.84;5120864;27;41277;-83
2023/11/10 18:10:49;;;;;;;2.17;0.80;;;;;;;9.73;67.63;97437.56;5119999;27;42229;-84
2023/11/10 18:13:16;;;;;;;2.03;1.00;;;;;;;9.68;68.38;97434.44;5121628;27;41881;-83
2023/11/10 18:15:45;;;;;;;2.33;0.80;;;;;;;9.58;68.08;97425.56;5138972;27;42966;-84
2023/11/10 18:18:13;;;;;;;2.37;0.90;;;;;;;9.59;67.97;97439.63;5139392;27;39747;-84
2023/11/10 18:20:40;;;;;;;1.10;0.80;;;;;;;9.54;69.02;97442.63;5138308;27;42721;-84
2023/11/10 18:23:09;;;;;;;2.30;0.80;;;;;;;9.54;69.04;97437.34;5121611;27;41599;-84
2023/11/10 18:25:38;;;;;;;1.80;1.10;;;;;;;9.64;69.79;97430.34;5120328;27;41138;-84
2023/11/10 18:28:05;;;;;;;3.90;0.73;;;;;;;9.72;68.83;97441.16;5119280;27;39873;-83
2023/11/10 18:30:33;;;;;;;1.30;0.90;;;;;;;9.68;68.73;97434.44;5120196;27;42081;-83
2023/11/10 18:33:01;;;;;;;4.13;0.90;;;;;;;9.72;68.99;97445.59;5103065;27;41369;-84
2023/11/10 18:35:29;;;;;;;3.67;0.90;;;;;;;9.63;69.56;97441.91;5103219;27;40894;-84
2023/11/10 18:37:56;;;;;;;1.57;0.87;;;;;;;9.68;69.00;97423.84;5119870;27;38886;-84
2023/11/10 18:40:25;;;;;;;1.93;0.90;;;;;;;9.89;68.87;97441.59;5137177;27;41630;-84
2023/11/10 18:42:53;;;;;;;0.97;0.70;;;;;;;9.93;68.34;97437.72;5119866;27;43148;-85
2023/11/10 18:45:21;;;;;;;2.77;1.23;;;;;;;9.93;69.42;97435.91;5136733;27;40861;-84
2023/11/10 18:47:49;;;;;;;1.87;0.90;;;;;;;9.94;69.14;97439.38;5155788;27;40886;-84
2023/11/10 18:50:18;;;;;;;2.80;1.10;;;;;;;9.85;69.27;97426.94;5137450;27;42758;-84
2023/11/10 18:52:46;;;;;;;1.77;1.00;;;;;;;9.79;68.89;97428.25;5119882;27;43223;-83
2023/11/10 18:55:13;;;;;;;2.23;1.20;;;;;;;9.83;69.10;97442.06;5119881;27;41512;-85
2023/11/10 18:57:42;;;;;;;3.27;0.93;;;;;;;9.72;69.31;97443.81;5119941;27;38428;-83
2023/11/10 19:00:11;;;;;;;3.63;1.03;;;;;;;9.65;69.22;97433.84;5119465;27;42887;-84
2023/11/10 19:02:39;;;;;;;2.10;1.10;;;;;;;9.67;69.35;97430.09;5136988;27;43125;-84
2023/11/10 19:05:07;;;;;;;1.03;0.97;;;;;;;9.84;69.25;97456.97;5119295;27;42191;-85
2023/11/10 19:07:35;;;;;;;3.83;0.90;;;;;;;9.80;68.84;97437.03;5119774;27;40073;-85
2023/11/10 19:10:05;;;;;;;1.27;0.87;;;;;;;9.93;68.83;97454.41;5119478;27;40874;-83
2023/11/10 19:12:33;;;;;;;1.20;0.87;;;;;;;9.95;69.10;97449.00;5137345;27;42774;-84
2023/11/10 19:15:02;;;;;;;2.13;1.10;;;;;;;9.78;69.13;97423.94;5155995;27;42090;-85
2023/11/10 19:17:29;;;;;;;1.70;0.80;;;;;;;9.85;68.58;97445.44;5137646;27;39437;-84
2023/11/10 19:19:57;;;;;;;2.27;1.10;;;;;;;9.85;69.04;97445.44;5120151;27;41572;-85
2023/11/10 19:22:25;;;;;;;2.17;1.40;;;;;;;9.81;68.83;97449.28;5120274;27;42947;-84
2023/11/10 19:24:53;;;;;;;3.00;1.10;;;;;;;9.66;69.67;97439.00;5120000;27;42269;-82
2023/11/10 19:27:20;;;;;;;1.27;0.90;;;;;;;9.77;69.33;97450.53;5120267;27;40700;-83
2023/11/10 19:29:48;;;;;;;2.03;0.97;;;;;;;9.67;69.95;97427.47;5120237;27;42256;-85
2023/11/10 19:32:19;;;;;;;1.97;0.90;;;;;;;9.68;69.70;97429.16;5153546;27;42821;-85
2023/11/10 19:34:46;;;;;;;2.60;1.23;;;;;;;9.71;70.33;97426.25;5119942;27;41562;-84
2023/11/10 19:37:14;;;;;;;1.53;1.20;;;;;;;9.78;69.89;97438.97;5137103;27;39252;-83
2023/11/10 19:39:41;;;;;;;1.70;0.90;;;;;;;9.68;69.67;97423.84;5150843;27;42407;-82
2023/11/10 19:42:10;;;;;;;2.60;1.00;;;;;;;9.69;69.50;97425.53;5134162;27;43559;-84
2023/11/10 19:44:37;;;;;;;1.23;1.00;;;;;;;9.67;69.62;97424.81;5134010;27;42235;-83
2023/11/10 19:47:06;;;;;;;1.93;1.40;;;;;;;9.54;70.00;97420.66;5117511;27;39146;-84
2023/11/10 19:49:35;;;;;;;0.80;0.80;;;;;;;9.54;69.67;97432.06;5135762;27;40586;-85
2023/11/10 19:52:03;;;;;;;2.73;1.13;;;;;;;9.34;69.76;97419.63;5134578;27;41262;-84
2023/11/10 19:54:31;;;;;;;3.07;1.20;;;;;;;9.28;70.90;97409.53;5118410;27;40778;-86
2023/11/10 19:56:58;;;;;;;4.73;1.50;;;;;;;9.17;70.70;97399.84;5118674;27;39054;-85
2023/11/10 19:59:29;;;;;;;2.10;1.10;;;;;;;9.39;70.15;97432.47;5135969;27;42405;-82
2023/11/10 20:01:57;;;;;;;4.30;1.30;;;;;;;9.29;70.32;97417.34;5118587;27;41443;-83
2023/11/10 20:04:28;;;;;;;1.20;1.00;;;;;;;9.36;70.27;97430.94;5118266;27;40963;-85
2023/11/10 20:07:00;;;;;;;2.60;1.00;;;;;;;9.23;70.21;97419.66;5140832;27;40032;-83
2023/11/10 20:09:28;;;;;;;2.17;0.83;;;;;;;9.23;69.81;97417.84;5156775;27;43392;-84
2023/11/10 20:11:59;;;;;;;2.63;1.20;;;;;;;8.95;69.89;97374.31;5143213;27;43388;-84
2023/11/10 20:14:28;;;;;;;1.87;1.17;;;;;;;9.34;70.06;97436.31;5119316;27;42866;-84
2023/11/10 20:16:55;;;;;;;2.77;1.30;;;;;;;9.23;70.29;97414.38;5136861;27;39078;-85
2023/11/10 20:19:23;;;;;;;2.27;1.20;;;;;;;9.30;71.00;97424.31;5136732;27;41808;-86
2023/11/10 20:21:50;;;;;;;4.40;1.10;;;;;;;9.26;70.67;97427.34;5119416;27;43240;-86
2023/11/10 20:24:19;;;;;;;3.23;1.23;;;;;;;9.18;70.31;97413.88;5136573;27;42448;-84
2023/11/10 20:26:49;;;;;;;2.47;1.30;;;;;;;9.20;70.31;97427.81;5136337;27;38731;-85
2023/11/10 20:29:17;;;;;;;1.17;1.07;;;;;;;9.08;70.17;97403.22;5119243;27;42102;-82
2023/11/10 20:31:44;;;;;;;1.23;1.13;;;;;;;9.07;70.02;97411.25;5119249;27;41841;-83
2023/11/10 20:34:13;;;;;;;1.10;0.90;;;;;;;9.06;70.10;97413.06;5118751;27;41595;-86
2023/11/10 20:36:44;;;;;;;1.57;1.20;;;;;;;9.10;70.09;97406.59;5119229;27;38835;-85
2023/11/10 20:39:12;;;;;;;2.40;1.20;;;;;;;9.05;69.94;97390.25;5118546;27;41479;-86
2023/11/10 20:41:42;;;;;;;2.20;1.13;;;;;;;9.18;69.52;97413.88;5134959;27;42509;-83
2023/11/10 20:44:13;;;;;;;1.20;1.00;;;;;;;9.02;69.85;97388.69;5132219;27;42128;-85
2023/11/10 20:46:42;;;;;;;5.00;1.23;;;;;;;8.96;70.12;97378.63;5117893;27;39562;-85
2023/11/10 20:49:11;;;;;;;1.70;1.27;;;;;;;8.97;70.56;97387.41;5135159;27;40436;-84
2023/11/10 20:51:40;;;;;;;1.27;1.00;;;;;;;8.94;70.53;97393.75;5135160;27;42692;-83
2023/11/10 20:54:08;;;;;;;3.00;1.30;;;;;;;8.91;70.97;97386.06;5117706;27;40956;-86
2023/11/10 20:56:35;;;;;;;1.10;1.00;;;;;;;9.02;70.96;97405.53;5117716;27;38853;-83
2023/11/10 20:59:07;;;;;;;1.73;1.07;;;;;;;8.92;71.02;97393.03;5153427;27;41411;-84
2023/11/10 21:01:34;;;;;;;2.53;1.50;;;;;;;8.95;70.97;97394.59;5135602;27;43399;-84
2023/11/10 21:04:02;;;;;;;1.53;0.90;;;;;;;8.93;71.49;97386.78;5117380;27;41248;-84
2023/11/10 21:06:29;;;;;;;1.37;0.90;;;;;;;8.91;70.94;97391.34;5135253;27;39716;-84
2023/11/10 21:08:57;;;;;;;2.77;1.10;;;;;;;8.99;71.48;97404.81;5117217;27;40547;-85
2023/11/10 21:11:25;;;;;;;1.60;1.00;;;;;;;9.01;71.37;97402.06;5135511;27;43047;-83
2023/11/10 21:13:53;;;;;;;2.53;1.27;;;;;;;8.91;71.89;97378.16;5119084;27;42272;-84
2023/11/10 21:16:22;;;;;;;2.57;1.50;;;;;;;9.02;71.69;97392.34;5136431;27;40905;-84
2023/11/10 21:18:49;;;;;;;2.70;1.40;;;;;;;9.03;71.87;97386.91;5135640;27;40870;-84
2023/11/10 21:21:19;;;;;;;3.23;1.13;;;;;;;9.06;71.74;97388.47;5118767;27;41897;-84
2023/11/10 21:23:46;;;;;;;4.57;1.57;;;;;;;9.06;72.04;97384.03;5135799;27;41111;-85
2023/11/10 21:26:19;;;;;;;3.50;1.17;;;;;;;9.08;72.09;97386.53;5118744;27;40129;-83
2023/11/10 21:28:46;;;;;;;2.07;1.27;;;;;;;9.07;72.24;97379.56;5132849;27;42298;-83
2023/11/10 21:31:14;;;;;;;1.10;1.00;;;;;;;8.96;72.01;97352.25;5118669;27;45001;-84
2023/11/10 21:33:42;;;;;;;1.77;0.93;;;;;;;8.99;71.88;97357.28;5118517;27;42499;-83
2023/11/10 21:36:10;;;;;;;1.00;0.90;;;;;;;8.90;71.49;97352.72;5118678;27;38590;-83
2023/11/10 21:38:38;;;;;;;0.97;0.77;;;;;;;8.80;71.48;97346.50;5118366;27;40756;-82
2023/11/10 21:41:07;;;;;;;0.83;0.83;;;;;;;8.80;71.60;97359.69;5134337;27;41866;-84
2023/11/10 21:43:35;;;;;;;1.70;0.80;;;;;;;8.64;71.85;97340.78;5116871;27;40986;-84
2023/11/10 21:46:03;;;;;;;2.30;1.10;;;;;;;8.65;71.74;97353.00;5117367;27;39052;-83
2023/11/10 21:48:30;;;;;;;1.90;1.10;;;;;;;8.42;71.82;97327.56;5117691;27;40814;-83
2023/11/10 21:51:01;;;;;;;3.73;1.60;;;;;;;8.21;72.68;97309.78;5134522;27;43048;-82
2023/11/10 21:53:28;;;;;;;1.90;1.40;;;;;;;8.32;72.61;97322.16;5117178;27;41009;-82
2023/11/10 21:55:56;;;;;;;2.23;1.20;;;;;;;8.29;73.28;97315.28;5120339;27;39209;-81
2023/11/10 21:58:24;;;;;;;1.67;1.33;;;;;;;8.26;73.31;97309.44;5120855;27;40512;-84